sensor_id;sensor_type;location;lat;lon;timestamp;temperature;humidity
23669;DHT22;12011;47.422;15.018;2024-02-23T00:00:14;6.00;99.90
23669;DHT22;12011;47.422;15.018;2024-02-23T00:02:44;6.00;99.90
23669;DHT22;12011;47.422;15.018;2024-02-23T00:05:14;6.10;99.90
23669;DHT22;12011;47.422;15.018;2024-02-23T00:07:46;6.00;99.90
23669;DHT22;12011;47.422;15.018;2024-02-23T00:10:16;6.00;99.90
23669;DHT22;12011;47.422;15.018;2024-02-23T00:12:46;6.10;99.90
23669;DHT22;12011;47.422;15.018;2024-02-23T00:15:16;6.10;99.90
23669;DHT22;12011;47.422;15.018;2024-02-23T00:17:46;5.40;99.90
23669;DHT22;12011;47.422;15.018;2024-02-23T00:20:16;6.00;99.90
23669;DHT22;12011;47.422;15.018;2024-02-23T00:22:49;6.10;99.90
23669;DHT22;12011;47.422;15.018;2024-02-23T00:25:19;6.00;99.90
23669;DHT22;12011;47.422;15.018;2024-02-23T00:27:49;6.10;99.90
23669;DHT22;12011;47.422;15.018;2024-02-23T00:30:19;6.10;99.90
23669;DHT22;12011;47.422;15.018;2024-02-23T00:32:48;6.10;99.90
23669;DHT22;12011;47.422;15.018;2024-02-23T00:35:18;6.20;99.90
23669;DHT22;12011;47.422;15.018;2024-02-23T00:37:51;6.10;99.90
23669;DHT22;12011;47.422;15.018;2024-02-23T00:40:20;6.10;99.90
23669;DHT22;12011;47.422;15.018;2024-02-23T00:42:50;6.10;99.90
23669;DHT22;12011;47.422;15.018;2024-02-23T00:45:20;6.10;99.90
23669;DHT22;12011;47.422;15.018;2024-02-23T00:47:50;6.00;99.90
23669;DHT22;12011;47.422;15.018;2024-02-23T00:50:20;5.90;99.90
23669;DHT22;12011;47.422;15.018;2024-02-23T00:52:53;6.00;99.90
23669;DHT22;12011;47.422;15.018;2024-02-23T00:55:22;6.00;99.90
23669;DHT22;12011;47.422;15.018;2024-02-23T00:57:53;6.20;99.90
23669;DHT22;12011;47.422;15.018;2024-02-23T01:00:22;6.40;99.90
23669;DHT22;12011;47.422;15.018;2024-02-23T01:02:53;6.60;99.90
23669;DHT22;12011;47.422;15.018;2024-02-23T01:05:24;6.80;99.90
23669;DHT22;12011;47.422;15.018;2024-02-23T01:07:58;6.90;99.90
23669;DHT22;12011;47.422;15.018;2024-02-23T01:10:28;7.00;99.90
23669;DHT22;12011;47.422;15.018;2024-02-23T01:12:58;6.90;99.90
23669;DHT22;12011;47.422;15.018;2024-02-23T01:15:28;6.80;99.90
23669;DHT22;12011;47.422;15.018;2024-02-23T01:17:58;6.70;99.90
23669;DHT22;12011;47.422;15.018;2024-02-23T01:20:27;6.60;99.90
23669;DHT22;12011;47.422;15.018;2024-02-23T01:23:00;6.50;99.90
23669;DHT22;12011;47.422;15.018;2024-02-23T01:25:30;6.50;99.90
23669;DHT22;12011;47.422;15.018;2024-02-23T01:28:04;6.40;99.90
23669;DHT22;12011;47.422;15.018;2024-02-23T01:30:34;6.50;99.90
23669;DHT22;12011;47.422;15.018;2024-02-23T01:33:04;6.50;99.90
23669;DHT22;12011;47.422;15.018;2024-02-23T01:35:34;6.40;99.90
23669;DHT22;12011;47.422;15.018;2024-02-23T01:38:07;6.40;99.90
23669;DHT22;12011;47.422;15.018;2024-02-23T01:40:36;6.40;99.90
23669;DHT22;12011;47.422;15.018;2024-02-23T01:43:06;6.40;99.90
23669;DHT22;12011;47.422;15.018;2024-02-23T01:45:36;6.30;99.90
23669;DHT22;12011;47.422;15.018;2024-02-23T01:48:07;6.30;99.90
23669;DHT22;12011;47.422;15.018;2024-02-23T01:50:37;6.20;99.90
23669;DHT22;12011;47.422;15.018;2024-02-23T01:53:12;6.20;99.90
23669;DHT22;12011;47.422;15.018;2024-02-23T01:55:45;6.10;99.90
23669;DHT22;12011;47.422;15.018;2024-02-23T01:58:17;6.10;99.90
23669;DHT22;12011;47.422;15.018;2024-02-23T02:00:48;6.00;99.90
23669;DHT22;12011;47.422;15.018;2024-02-23T02:03:18;6.00;99.90
23669;DHT22;12011;47.422;15.018;2024-02-23T02:05:47;5.90;99.90
23669;DHT22;12011;47.422;15.018;2024-02-23T02:08:21;5.80;99.90
23669;DHT22;12011;47.422;15.018;2024-02-23T02:10:51;5.80;99.90
23669;DHT22;12011;47.422;15.018;2024-02-23T02:13:21;5.80;99.90
23669;DHT22;12011;47.422;15.018;2024-02-23T02:15:51;5.80;99.90
23669;DHT22;12011;47.422;15.018;2024-02-23T02:18:20;5.80;99.90
23669;DHT22;12011;47.422;15.018;2024-02-23T02:20:53;5.80;99.90
23669;DHT22;12011;47.422;15.018;2024-02-23T02:23:27;5.80;99.90
23669;DHT22;12011;47.422;15.018;2024-02-23T02:25:58;5.70;99.90
23669;DHT22;12011;47.422;15.018;2024-02-23T02:28:28;5.70;99.90
23669;DHT22;12011;47.422;15.018;2024-02-23T02:30:58;5.60;99.90
23669;DHT22;12011;47.422;15.018;2024-02-23T02:33:28;5.70;99.90
23669;DHT22;12011;47.422;15.018;2024-02-23T02:35:57;5.60;99.90
23669;DHT22;12011;47.422;15.018;2024-02-23T02:38:30;5.60;99.90
23669;DHT22;12011;47.422;15.018;2024-02-23T02:41:00;5.60;99.90
23669;DHT22;12011;47.422;15.018;2024-02-23T02:43:33;5.60;99.90
23669;DHT22;12011;47.422;15.018;2024-02-23T02:46:03;5.50;99.90
23669;DHT22;12011;47.422;15.018;2024-02-23T02:48:33;5.50;99.90
23669;DHT22;12011;47.422;15.018;2024-02-23T02:51:03;5.50;99.90
23669;DHT22;12011;47.422;15.018;2024-02-23T02:53:36;5.50;99.90
23669;DHT22;12011;47.422;15.018;2024-02-23T02:56:06;5.50;99.90
23669;DHT22;12011;47.422;15.018;2024-02-23T02:58:36;5.50;99.90
23669;DHT22;12011;47.422;15.018;2024-02-23T03:01:05;5.50;99.90
23669;DHT22;12011;47.422;15.018;2024-02-23T03:03:35;5.40;99.90
23669;DHT22;12011;47.422;15.018;2024-02-23T03:06:05;5.40;99.90
23669;DHT22;12011;47.422;15.018;2024-02-23T03:08:38;5.40;99.90
23669;DHT22;12011;47.422;15.018;2024-02-23T03:11:10;5.30;99.90
23669;DHT22;12011;47.422;15.018;2024-02-23T03:13:44;5.30;99.90
23669;DHT22;12011;47.422;15.018;2024-02-23T03:16:15;5.20;99.90
23669;DHT22;12011;47.422;15.018;2024-02-23T03:18:45;5.20;99.90
23669;DHT22;12011;47.422;15.018;2024-02-23T03:21:15;5.20;99.90
23669;DHT22;12011;47.422;15.018;2024-02-23T03:23:47;5.20;99.90
23669;DHT22;12011;47.422;15.018;2024-02-23T03:26:17;5.20;99.90
23669;DHT22;12011;47.422;15.018;2024-02-23T03:28:47;5.20;99.90
23669;DHT22;12011;47.422;15.018;2024-02-23T03:31:17;5.30;99.90
23669;DHT22;12011;47.422;15.018;2024-02-23T03:33:50;5.30;99.90
23669;DHT22;12011;47.422;15.018;2024-02-23T03:36:19;5.30;99.90
23669;DHT22;12011;47.422;15.018;2024-02-23T03:39:00;5.30;99.90
23669;DHT22;12011;47.422;15.018;2024-02-23T03:41:48;5.40;99.90
23669;DHT22;12011;47.422;15.018;2024-02-23T03:44:31;5.40;99.90
23669;DHT22;12011;47.422;15.018;2024-02-23T03:47:01;5.40;99.90
23669;DHT22;12011;47.422;15.018;2024-02-23T03:49:31;5.40;99.90
23669;DHT22;12011;47.422;15.018;2024-02-23T03:52:00;5.40;99.90
23669;DHT22;12011;47.422;15.018;2024-02-23T03:54:33;5.30;99.90
23669;DHT22;12011;47.422;15.018;2024-02-23T03:57:03;5.30;99.90
23669;DHT22;12011;47.422;15.018;2024-02-23T03:59:36;5.30;99.90
23669;DHT22;12011;47.422;15.018;2024-02-23T04:02:07;5.30;99.90
23669;DHT22;12011;47.422;15.018;2024-02-23T04:04:37;5.30;99.90
23669;DHT22;12011;47.422;15.018;2024-02-23T04:07:07;5.30;99.90
23669;DHT22;12011;47.422;15.018;2024-02-23T04:09:39;5.30;99.90
23669;DHT22;12011;47.422;15.018;2024-02-23T04:12:09;5.40;99.90
23669;DHT22;12011;47.422;15.018;2024-02-23T04:14:39;5.30;99.90
23669;DHT22;12011;47.422;15.018;2024-02-23T04:17:08;5.40;99.90
23669;DHT22;12011;47.422;15.018;2024-02-23T04:19:40;5.40;99.90
23669;DHT22;12011;47.422;15.018;2024-02-23T04:22:10;5.40;99.90
23669;DHT22;12011;47.422;15.018;2024-02-23T04:24:42;5.40;99.90
23669;DHT22;12011;47.422;15.018;2024-02-23T04:27:12;5.40;99.90
23669;DHT22;12011;47.422;15.018;2024-02-23T04:29:42;5.40;99.90
23669;DHT22;12011;47.422;15.018;2024-02-23T04:32:11;5.40;99.90
23669;DHT22;12011;47.422;15.018;2024-02-23T04:34:41;5.40;99.90
23669;DHT22;12011;47.422;15.018;2024-02-23T04:37:11;5.40;99.90
23669;DHT22;12011;47.422;15.018;2024-02-23T04:39:44;5.30;99.90
23669;DHT22;12011;47.422;15.018;2024-02-23T04:42:13;5.30;99.90
23669;DHT22;12011;47.422;15.018;2024-02-23T04:44:43;5.40;99.90
23669;DHT22;12011;47.422;15.018;2024-02-23T04:47:15;5.30;99.90
23669;DHT22;12011;47.422;15.018;2024-02-23T04:49:45;5.30;99.90
23669;DHT22;12011;47.422;15.018;2024-02-23T04:52:15;5.30;99.90
23669;DHT22;12011;47.422;15.018;2024-02-23T04:54:49;5.30;99.90
23669;DHT22;12011;47.422;15.018;2024-02-23T04:57:18;5.20;99.90
23669;DHT22;12011;47.422;15.018;2024-02-23T04:59:48;5.10;99.90
23669;DHT22;12011;47.422;15.018;2024-02-23T05:02:18;5.20;99.90
23669;DHT22;12011;47.422;15.018;2024-02-23T05:04:48;5.10;99.90
23669;DHT22;12011;47.422;15.018;2024-02-23T05:07:18;5.10;99.90
23669;DHT22;12011;47.422;15.018;2024-02-23T05:09:50;5.00;99.90
23669;DHT22;12011;47.422;15.018;2024-02-23T05:12:20;5.00;99.90
23669;DHT22;12011;47.422;15.018;2024-02-23T05:14:50;4.90;99.90
23669;DHT22;12011;47.422;15.018;2024-02-23T05:17:19;4.90;99.90
23669;DHT22;12011;47.422;15.018;2024-02-23T05:19:49;4.80;99.90
23669;DHT22;12011;47.422;15.018;2024-02-23T05:22:19;4.70;99.90
23669;DHT22;12011;47.422;15.018;2024-02-23T05:24:52;4.70;99.90
23669;DHT22;12011;47.422;15.018;2024-02-23T05:27:21;4.60;99.90
23669;DHT22;12011;47.422;15.018;2024-02-23T05:29:53;4.60;99.90
23669;DHT22;12011;47.422;15.018;2024-02-23T05:32:23;4.50;99.90
23669;DHT22;12011;47.422;15.018;2024-02-23T05:34:53;4.60;99.90
23669;DHT22;12011;47.422;15.018;2024-02-23T05:37:23;4.70;99.90
23669;DHT22;12011;47.422;15.018;2024-02-23T05:39:56;4.80;99.90
23669;DHT22;12011;47.422;15.018;2024-02-23T05:42:26;4.70;99.90
23669;DHT22;12011;47.422;15.018;2024-02-23T05:44:56;4.70;99.90
23669;DHT22;12011;47.422;15.018;2024-02-23T05:47:26;4.50;99.90
23669;DHT22;12011;47.422;15.018;2024-02-23T05:49:56;4.50;99.90
23669;DHT22;12011;47.422;15.018;2024-02-23T05:52:25;4.50;99.90
23669;DHT22;12011;47.422;15.018;2024-02-23T05:54:58;4.60;99.90
23669;DHT22;12011;47.422;15.018;2024-02-23T05:57:28;4.60;99.90
23669;DHT22;12011;47.422;15.018;2024-02-23T05:59:58;4.60;99.90
23669;DHT22;12011;47.422;15.018;2024-02-23T06:02:37;4.60;99.90
23669;DHT22;12011;47.422;15.018;2024-02-23T06:05:08;4.60;99.90
23669;DHT22;12011;47.422;15.018;2024-02-23T06:07:37;4.60;99.90
23669;DHT22;12011;47.422;15.018;2024-02-23T06:10:10;4.70;99.90
23669;DHT22;12011;47.422;15.018;2024-02-23T06:12:40;4.60;99.90
23669;DHT22;12011;47.422;15.018;2024-02-23T06:15:10;4.60;99.90
23669;DHT22;12011;47.422;15.018;2024-02-23T06:17:40;4.60;99.90
23669;DHT22;12011;47.422;15.018;2024-02-23T06:20:11;4.70;99.90
23669;DHT22;12011;47.422;15.018;2024-02-23T06:22:41;4.70;99.90
23669;DHT22;12011;47.422;15.018;2024-02-23T06:25:14;4.80;99.90
23669;DHT22;12011;47.422;15.018;2024-02-23T06:27:43;4.80;99.90
23669;DHT22;12011;47.422;15.018;2024-02-23T06:30:13;4.80;99.90
23669;DHT22;12011;47.422;15.018;2024-02-23T06:32:44;4.90;99.90
23669;DHT22;12011;47.422;15.018;2024-02-23T06:35:13;4.90;99.90
23669;DHT22;12011;47.422;15.018;2024-02-23T06:37:43;4.80;99.90
23669;DHT22;12011;47.422;15.018;2024-02-23T06:40:16;4.80;99.90
23669;DHT22;12011;47.422;15.018;2024-02-23T06:42:46;4.80;99.90
23669;DHT22;12011;47.422;15.018;2024-02-23T06:45:16;4.90;99.90
23669;DHT22;12011;47.422;15.018;2024-02-23T06:47:52;4.90;99.90
23669;DHT22;12011;47.422;15.018;2024-02-23T06:50:21;4.90;99.90
23669;DHT22;12011;47.422;15.018;2024-02-23T06:52:51;4.90;99.90
23669;DHT22;12011;47.422;15.018;2024-02-23T06:55:24;4.90;99.90
23669;DHT22;12011;47.422;15.018;2024-02-23T06:57:54;4.80;99.90
23669;DHT22;12011;47.422;15.018;2024-02-23T07:00:23;4.80;99.90
23669;DHT22;12011;47.422;15.018;2024-02-23T07:02:53;4.80;99.90
23669;DHT22;12011;47.422;15.018;2024-02-23T07:05:25;4.80;99.90
23669;DHT22;12011;47.422;15.018;2024-02-23T07:07:55;4.80;99.90
23669;DHT22;12011;47.422;15.018;2024-02-23T07:10:27;4.80;99.90
23669;DHT22;12011;47.422;15.018;2024-02-23T07:12:57;4.90;99.90
23669;DHT22;12011;47.422;15.018;2024-02-23T07:15:27;5.00;99.90
23669;DHT22;12011;47.422;15.018;2024-02-23T07:17:59;5.00;99.90
23669;DHT22;12011;47.422;15.018;2024-02-23T07:20:28;5.00;99.90
23669;DHT22;12011;47.422;15.018;2024-02-23T07:22:58;5.10;99.90
23669;DHT22;12011;47.422;15.018;2024-02-23T07:25:31;5.10;99.90
23669;DHT22;12011;47.422;15.018;2024-02-23T07:28:01;5.00;99.90
23669;DHT22;12011;47.422;15.018;2024-02-23T07:30:30;5.10;99.90
23669;DHT22;12011;47.422;15.018;2024-02-23T07:33:01;5.20;99.90
23669;DHT22;12011;47.422;15.018;2024-02-23T07:35:31;5.20;99.90
23669;DHT22;12011;47.422;15.018;2024-02-23T07:38:16;5.20;99.90
23669;DHT22;12011;47.422;15.018;2024-02-23T07:40:48;5.40;99.90
23669;DHT22;12011;47.422;15.018;2024-02-23T07:43:18;5.30;99.90
23669;DHT22;12011;47.422;15.018;2024-02-23T07:45:48;5.40;99.90
23669;DHT22;12011;47.422;15.018;2024-02-23T07:48:17;5.40;99.90
23669;DHT22;12011;47.422;15.018;2024-02-23T07:50:48;5.50;99.90
23669;DHT22;12011;47.422;15.018;2024-02-23T07:53:18;5.50;99.90
23669;DHT22;12011;47.422;15.018;2024-02-23T07:55:50;5.50;99.90
23669;DHT22;12011;47.422;15.018;2024-02-23T07:58:24;5.50;99.90
23669;DHT22;12011;47.422;15.018;2024-02-23T08:01:14;5.40;99.90
23669;DHT22;12011;47.422;15.018;2024-02-23T08:03:44;5.40;99.90
23669;DHT22;12011;47.422;15.018;2024-02-23T08:06:32;5.40;99.90
23669;DHT22;12011;47.422;15.018;2024-02-23T08:09:05;5.40;99.90
23669;DHT22;12011;47.422;15.018;2024-02-23T08:11:37;5.40;99.90
23669;DHT22;12011;47.422;15.018;2024-02-23T08:14:07;5.40;99.90
23669;DHT22;12011;47.422;15.018;2024-02-23T08:16:47;5.50;99.90
23669;DHT22;12011;47.422;15.018;2024-02-23T08:19:19;5.50;99.90
23669;DHT22;12011;47.422;15.018;2024-02-23T08:21:49;5.50;99.90
23669;DHT22;12011;47.422;15.018;2024-02-23T08:24:19;5.50;99.90
23669;DHT22;12011;47.422;15.018;2024-02-23T08:26:52;5.60;99.90
23669;DHT22;12011;47.422;15.018;2024-02-23T08:29:23;5.60;99.90
23669;DHT22;12011;47.422;15.018;2024-02-23T08:31:52;5.60;99.90
23669;DHT22;12011;47.422;15.018;2024-02-23T08:34:22;5.70;99.90
23669;DHT22;12011;47.422;15.018;2024-02-23T08:36:52;5.70;99.90
23669;DHT22;12011;47.422;15.018;2024-02-23T08:39:22;5.80;99.90
23669;DHT22;12011;47.422;15.018;2024-02-23T08:41:54;5.90;99.90
23669;DHT22;12011;47.422;15.018;2024-02-23T08:44:24;6.00;99.90
23669;DHT22;12011;47.422;15.018;2024-02-23T08:46:54;6.10;99.90
23669;DHT22;12011;47.422;15.018;2024-02-23T08:49:24;6.10;99.90
23669;DHT22;12011;47.422;15.018;2024-02-23T08:51:54;6.20;99.90
23669;DHT22;12011;47.422;15.018;2024-02-23T08:54:25;6.20;99.90
23669;DHT22;12011;47.422;15.018;2024-02-23T08:56:57;6.20;99.90
23669;DHT22;12011;47.422;15.018;2024-02-23T08:59:27;6.30;99.90
23669;DHT22;12011;47.422;15.018;2024-02-23T09:01:57;6.30;99.90
23669;DHT22;12011;47.422;15.018;2024-02-23T09:04:27;6.30;99.90
23669;DHT22;12011;47.422;15.018;2024-02-23T09:06:58;6.40;99.90
23669;DHT22;12011;47.422;15.018;2024-02-23T09:09:28;6.40;99.90
23669;DHT22;12011;47.422;15.018;2024-02-23T09:12:01;6.50;99.90
23669;DHT22;12011;47.422;15.018;2024-02-23T09:14:33;6.50;99.90
23669;DHT22;12011;47.422;15.018;2024-02-23T09:17:04;6.50;99.90
23669;DHT22;12011;47.422;15.018;2024-02-23T09:19:36;6.50;99.90
23669;DHT22;12011;47.422;15.018;2024-02-23T09:22:06;6.40;99.90
23669;DHT22;12011;47.422;15.018;2024-02-23T09:24:39;6.40;99.90
23669;DHT22;12011;47.422;15.018;2024-02-23T09:27:11;6.50;99.90
23669;DHT22;12011;47.422;15.018;2024-02-23T09:29:42;6.50;99.90
23669;DHT22;12011;47.422;15.018;2024-02-23T09:32:13;6.50;99.90
23669;DHT22;12011;47.422;15.018;2024-02-23T09:34:42;6.40;99.90
23669;DHT22;12011;47.422;15.018;2024-02-23T09:37:12;6.50;99.90
23669;DHT22;12011;47.422;15.018;2024-02-23T09:39:42;6.40;99.90
23669;DHT22;12011;47.422;15.018;2024-02-23T09:42:15;6.40;99.90
23669;DHT22;12011;47.422;15.018;2024-02-23T09:44:45;6.40;99.90
23669;DHT22;12011;47.422;15.018;2024-02-23T09:47:17;6.40;99.90
23669;DHT22;12011;47.422;15.018;2024-02-23T09:49:50;6.40;99.90
23669;DHT22;12011;47.422;15.018;2024-02-23T09:52:21;6.30;99.90
23669;DHT22;12011;47.422;15.018;2024-02-23T09:54:51;6.30;99.90
23669;DHT22;12011;47.422;15.018;2024-02-23T09:57:27;6.30;99.90
23669;DHT22;12011;47.422;15.018;2024-02-23T09:59:58;6.30;99.90
23669;DHT22;12011;47.422;15.018;2024-02-23T10:02:40;6.30;99.90
23669;DHT22;12011;47.422;15.018;2024-02-23T10:05:11;6.30;99.90
23669;DHT22;12011;47.422;15.018;2024-02-23T10:07:42;6.30;99.90
23669;DHT22;12011;47.422;15.018;2024-02-23T10:10:14;6.40;99.90
23669;DHT22;12011;47.422;15.018;2024-02-23T10:12:46;6.40;99.90
23669;DHT22;12011;47.422;15.018;2024-02-23T10:15:16;6.30;99.90
23669;DHT22;12011;47.422;15.018;2024-02-23T10:17:46;6.30;99.90
23669;DHT22;12011;47.422;15.018;2024-02-23T10:20:16;6.30;99.90
23669;DHT22;12011;47.422;15.018;2024-02-23T10:22:47;6.40;99.90
23669;DHT22;12011;47.422;15.018;2024-02-23T10:25:19;6.30;99.90
23669;DHT22;12011;47.422;15.018;2024-02-23T10:27:52;6.30;99.90
23669;DHT22;12011;47.422;15.018;2024-02-23T10:30:23;6.20;99.90
23669;DHT22;12011;47.422;15.018;2024-02-23T10:32:56;6.30;99.90
23669;DHT22;12011;47.422;15.018;2024-02-23T10:35:32;6.30;99.90
23669;DHT22;12011;47.422;15.018;2024-02-23T10:38:08;6.30;99.90
23669;DHT22;12011;47.422;15.018;2024-02-23T10:40:39;6.30;99.90
23669;DHT22;12011;47.422;15.018;2024-02-23T10:43:19;6.30;99.90
23669;DHT22;12011;47.422;15.018;2024-02-23T10:45:49;6.30;99.90
23669;DHT22;12011;47.422;15.018;2024-02-23T10:48:19;6.40;99.90
23669;DHT22;12011;47.422;15.018;2024-02-23T10:50:50;6.40;99.90
23669;DHT22;12011;47.422;15.018;2024-02-23T10:53:23;6.40;99.90
23669;DHT22;12011;47.422;15.018;2024-02-23T10:55:57;6.40;99.90
23669;DHT22;12011;47.422;15.018;2024-02-23T10:58:29;6.30;99.90
23669;DHT22;12011;47.422;15.018;2024-02-23T11:01:01;6.40;99.90
23669;DHT22;12011;47.422;15.018;2024-02-23T11:03:34;6.40;99.90
23669;DHT22;12011;47.422;15.018;2024-02-23T11:06:08;6.50;99.90
23669;DHT22;12011;47.422;15.018;2024-02-23T11:08:48;6.50;99.90
23669;DHT22;12011;47.422;15.018;2024-02-23T11:11:19;6.40;99.90
23669;DHT22;12011;47.422;15.018;2024-02-23T11:13:56;6.40;99.90
23669;DHT22;12011;47.422;15.018;2024-02-23T11:16:26;6.40;99.90
23669;DHT22;12011;47.422;15.018;2024-02-23T11:19:04;6.40;99.90
23669;DHT22;12011;47.422;15.018;2024-02-23T11:21:35;6.50;99.90
23669;DHT22;12011;47.422;15.018;2024-02-23T11:24:06;6.60;99.90
23669;DHT22;12011;47.422;15.018;2024-02-23T11:26:38;6.60;99.90
23669;DHT22;12011;47.422;15.018;2024-02-23T11:29:14;6.60;99.90
23669;DHT22;12011;47.422;15.018;2024-02-23T11:31:46;6.70;99.90
23669;DHT22;12011;47.422;15.018;2024-02-23T11:34:22;6.70;99.90
23669;DHT22;12011;47.422;15.018;2024-02-23T11:36:53;6.90;99.90
23669;DHT22;12011;47.422;15.018;2024-02-23T11:39:26;7.00;99.90
23669;DHT22;12011;47.422;15.018;2024-02-23T11:41:57;7.00;99.90
23669;DHT22;12011;47.422;15.018;2024-02-23T11:44:30;7.10;99.90
23669;DHT22;12011;47.422;15.018;2024-02-23T11:47:00;7.20;99.90
23669;DHT22;12011;47.422;15.018;2024-02-23T11:49:30;7.30;99.90
23669;DHT22;12011;47.422;15.018;2024-02-23T11:52:02;7.40;99.90
23669;DHT22;12011;47.422;15.018;2024-02-23T11:54:32;7.50;99.90
23669;DHT22;12011;47.422;15.018;2024-02-23T11:57:03;7.60;99.90
23669;DHT22;12011;47.422;15.018;2024-02-23T11:59:36;7.70;99.90
23669;DHT22;12011;47.422;15.018;2024-02-23T12:02:06;7.80;99.90
23669;DHT22;12011;47.422;15.018;2024-02-23T12:04:36;7.90;99.90
23669;DHT22;12011;47.422;15.018;2024-02-23T12:07:06;7.90;99.90
23669;DHT22;12011;47.422;15.018;2024-02-23T12:09:36;7.90;99.90
23669;DHT22;12011;47.422;15.018;2024-02-23T12:12:08;7.90;99.90
23669;DHT22;12011;47.422;15.018;2024-02-23T12:14:41;8.10;99.90
23669;DHT22;12011;47.422;15.018;2024-02-23T12:17:11;8.10;99.90
23669;DHT22;12011;47.422;15.018;2024-02-23T12:19:42;8.10;99.90
23669;DHT22;12011;47.422;15.018;2024-02-23T12:22:12;8.00;99.90
23669;DHT22;12011;47.422;15.018;2024-02-23T12:24:42;7.90;99.90
23669;DHT22;12011;47.422;15.018;2024-02-23T12:27:12;7.90;99.90
23669;DHT22;12011;47.422;15.018;2024-02-23T12:29:54;7.80;99.90
23669;DHT22;12011;47.422;15.018;2024-02-23T12:32:25;7.80;99.90
23669;DHT22;12011;47.422;15.018;2024-02-23T12:34:56;7.70;99.90
23669;DHT22;12011;47.422;15.018;2024-02-23T12:37:26;7.70;99.90
23669;DHT22;12011;47.422;15.018;2024-02-23T12:39:56;7.70;99.90
23669;DHT22;12011;47.422;15.018;2024-02-23T12:42:26;7.60;99.90
23669;DHT22;12011;47.422;15.018;2024-02-23T12:44:58;7.60;99.90
23669;DHT22;12011;47.422;15.018;2024-02-23T12:47:30;7.60;99.90
23669;DHT22;12011;47.422;15.018;2024-02-23T12:50:00;7.70;99.90
23669;DHT22;12011;47.422;15.018;2024-02-23T12:52:40;7.70;99.90
23669;DHT22;12011;47.422;15.018;2024-02-23T12:55:11;7.70;99.90
23669;DHT22;12011;47.422;15.018;2024-02-23T12:57:40;7.80;99.90
23669;DHT22;12011;47.422;15.018;2024-02-23T13:00:14;7.80;99.90
23669;DHT22;12011;47.422;15.018;2024-02-23T13:02:45;7.80;99.90
23669;DHT22;12011;47.422;15.018;2024-02-23T13:05:15;7.90;99.90
23669;DHT22;12011;47.422;15.018;2024-02-23T13:07:45;7.90;99.90
23669;DHT22;12011;47.422;15.018;2024-02-23T13:10:16;7.90;99.90
23669;DHT22;12011;47.422;15.018;2024-02-23T13:12:47;7.90;99.90
23669;DHT22;12011;47.422;15.018;2024-02-23T13:15:19;8.00;99.90
23669;DHT22;12011;47.422;15.018;2024-02-23T13:17:49;8.00;99.90
23669;DHT22;12011;47.422;15.018;2024-02-23T13:20:19;8.00;99.90
23669;DHT22;12011;47.422;15.018;2024-02-23T13:22:50;8.00;99.90
23669;DHT22;12011;47.422;15.018;2024-02-23T13:25:20;8.10;99.90
23669;DHT22;12011;47.422;15.018;2024-02-23T13:27:49;8.10;99.90
23669;DHT22;12011;47.422;15.018;2024-02-23T13:30:22;8.10;99.90
23669;DHT22;12011;47.422;15.018;2024-02-23T13:32:52;8.00;99.90
23669;DHT22;12011;47.422;15.018;2024-02-23T13:35:22;8.00;99.90
23669;DHT22;12011;47.422;15.018;2024-02-23T13:37:52;8.00;99.90
23669;DHT22;12011;47.422;15.018;2024-02-23T13:40:24;8.00;99.90
23669;DHT22;12011;47.422;15.018;2024-02-23T13:42:54;7.90;99.90
23669;DHT22;12011;47.422;15.018;2024-02-23T13:45:26;7.90;99.90
23669;DHT22;12011;47.422;15.018;2024-02-23T13:47:57;7.70;99.90
23669;DHT22;12011;47.422;15.018;2024-02-23T13:50:28;7.70;99.90
23669;DHT22;12011;47.422;15.018;2024-02-23T13:52:59;7.70;99.90
23669;DHT22;12011;47.422;15.018;2024-02-23T13:55:29;7.80;99.90
23669;DHT22;12011;47.422;15.018;2024-02-23T13:57:58;7.80;99.90
23669;DHT22;12011;47.422;15.018;2024-02-23T14:00:31;7.80;99.90
23669;DHT22;12011;47.422;15.018;2024-02-23T14:03:01;7.90;99.90
23669;DHT22;12011;47.422;15.018;2024-02-23T14:05:30;7.90;99.90
23669;DHT22;12011;47.422;15.018;2024-02-23T14:08:00;7.90;99.90
23669;DHT22;12011;47.422;15.018;2024-02-23T14:10:30;7.90;99.90
23669;DHT22;12011;47.422;15.018;2024-02-23T14:13:00;7.80;99.90
23669;DHT22;12011;47.422;15.018;2024-02-23T14:15:33;7.70;99.90
23669;DHT22;12011;47.422;15.018;2024-02-23T14:18:03;7.60;99.90
23669;DHT22;12011;47.422;15.018;2024-02-23T14:20:33;7.70;99.90
23669;DHT22;12011;47.422;15.018;2024-02-23T14:23:02;7.70;99.90
23669;DHT22;12011;47.422;15.018;2024-02-23T14:25:32;7.70;99.90
23669;DHT22;12011;47.422;15.018;2024-02-23T14:28:03;7.70;99.90
23669;DHT22;12011;47.422;15.018;2024-02-23T14:30:36;7.60;99.90
23669;DHT22;12011;47.422;15.018;2024-02-23T14:33:06;7.50;99.90
23669;DHT22;12011;47.422;15.018;2024-02-23T14:35:36;7.40;99.90
23669;DHT22;12011;47.422;15.018;2024-02-23T14:38:06;7.40;99.90
23669;DHT22;12011;47.422;15.018;2024-02-23T14:40:35;7.30;99.90
23669;DHT22;12011;47.422;15.018;2024-02-23T14:43:06;7.30;99.90
23669;DHT22;12011;47.422;15.018;2024-02-23T14:45:38;7.20;99.90
23669;DHT22;12011;47.422;15.018;2024-02-23T14:48:08;7.20;99.90
23669;DHT22;12011;47.422;15.018;2024-02-23T14:50:38;7.20;99.90
23669;DHT22;12011;47.422;15.018;2024-02-23T14:53:08;7.10;99.90
23669;DHT22;12011;47.422;15.018;2024-02-23T14:55:38;7.10;99.90
23669;DHT22;12011;47.422;15.018;2024-02-23T14:58:08;7.20;99.90
23669;DHT22;12011;47.422;15.018;2024-02-23T15:00:40;7.20;99.90
23669;DHT22;12011;47.422;15.018;2024-02-23T15:03:10;7.10;99.90
23669;DHT22;12011;47.422;15.018;2024-02-23T15:05:40;7.00;99.90
23669;DHT22;12011;47.422;15.018;2024-02-23T15:08:10;7.00;99.90
23669;DHT22;12011;47.422;15.018;2024-02-23T15:10:40;6.90;99.90
23669;DHT22;12011;47.422;15.018;2024-02-23T15:13:10;6.90;99.90
23669;DHT22;12011;47.422;15.018;2024-02-23T15:15:42;6.90;99.90
23669;DHT22;12011;47.422;15.018;2024-02-23T15:18:12;6.90;99.90
23669;DHT22;12011;47.422;15.018;2024-02-23T15:20:42;6.80;99.90
23669;DHT22;12011;47.422;15.018;2024-02-23T15:23:12;6.80;99.90
23669;DHT22;12011;47.422;15.018;2024-02-23T15:25:42;6.80;99.90
23669;DHT22;12011;47.422;15.018;2024-02-23T15:28:15;6.70;99.90
23669;DHT22;12011;47.422;15.018;2024-02-23T15:30:52;6.60;99.90
23669;DHT22;12011;47.422;15.018;2024-02-23T15:33:21;6.60;99.90
23669;DHT22;12011;47.422;15.018;2024-02-23T15:35:51;6.50;99.90
23669;DHT22;12011;47.422;15.018;2024-02-23T15:38:21;6.50;99.90
23669;DHT22;12011;47.422;15.018;2024-02-23T15:40:51;6.40;99.90
23669;DHT22;12011;47.422;15.018;2024-02-23T15:43:21;6.40;99.90
23669;DHT22;12011;47.422;15.018;2024-02-23T15:45:53;6.30;99.90
23669;DHT22;12011;47.422;15.018;2024-02-23T15:48:24;6.30;99.90
23669;DHT22;12011;47.422;15.018;2024-02-23T15:53:34;6.30;99.90
23669;DHT22;12011;47.422;15.018;2024-02-23T15:56:08;6.30;99.90